Time;durP1;ratioP1;P1;durP2;ratioP2;P2;SDS_P1;SDS_P2;PMS_P1;PMS_P2;Temp;Humidity;BMP_temperature;BMP_pressure;BME280_temperature;BME280_humidity;BME280_pressure;Samples;Min_cycle;Max_cycle;Signal;HPM_P1;HPM_P2
2023/08/03 00:00:02;;;;;;;2.73;1.17;;;;;;;;;;2611691;39;20790;-74
2023/08/03 00:05:32;;;;;;;3.23;1.20;;;;;;;;;;2614981;54;20374;-74
2023/08/03 00:11:02;;;;;;;7.47;1.83;;;;;;;;;;2614207;54;20403;-74
2023/08/03 00:16:31;;;;;;;4.93;1.30;;;;;;;;;;2611947;54;20362;-74
2023/08/03 00:22:01;;;;;;;7.70;1.77;;;;;;;;;;2611268;54;20354;-73
2023/08/03 00:27:31;;;;;;;2.77;1.50;;;;;;;;;;2611087;54;21012;-75
2023/08/03 00:39:07;;;;;;;2.77;1.30;;;;;;;;;;2611543;39;21042;-74
2023/08/03 00:44:37;;;;;;;4.50;1.37;;;;;;;;;;2611270;54;20391;-74
2023/08/03 00:50:07;;;;;;;2.40;1.23;;;;;;;;;;2611487;54;20358;-71
2023/08/03 00:55:37;;;;;;;3.67;1.50;;;;;;;;;;2610983;54;20407;-72
2023/08/03 01:01:06;;;;;;;5.93;0.80;;;;;;;;;;2610530;54;20411;-72
2023/08/03 01:06:36;;;;;;;28.93;3.70;;;;;;;;;;2610656;54;20414;-72
2023/08/03 01:12:06;;;;;;;2.10;1.20;;;;;;;;;;2611021;54;20826;-72
2023/08/03 01:17:35;;;;;;;1.90;1.27;;;;;;;;;;2610554;54;20410;-72
2023/08/03 01:23:05;;;;;;;2.40;1.23;;;;;;;;;;2610915;54;20503;-72
2023/08/03 01:28:35;;;;;;;2.77;1.10;;;;;;;;;;2611618;54;20439;-72
2023/08/03 01:37:46;;;;;;;3.63;1.00;;;;;;;;;;2611767;54;20423;-72
2023/08/03 01:43:15;;;;;;;4.77;1.10;;;;;;;;;;2612114;54;20395;-73
2023/08/03 01:48:45;;;;;;;2.27;1.60;;;;;;;;;;2612161;54;20450;-74
2023/08/03 01:54:15;;;;;;;1.73;1.27;;;;;;;;;;2612309;54;20394;-74
2023/08/03 01:59:45;;;;;;;3.63;1.97;;;;;;;;;;2612006;54;20346;-74
2023/08/03 02:05:15;;;;;;;2.90;1.60;;;;;;;;;;2614805;54;20375;-75
2023/08/03 02:10:44;;;;;;;3.37;2.00;;;;;;;;;;2614684;54;20414;-74
2023/08/03 02:16:14;;;;;;;5.40;1.10;;;;;;;;;;2612210;54;20398;-76
2023/08/03 02:21:43;;;;;;;5.40;1.60;;;;;;;;;;2610796;54;20545;-74
2023/08/03 02:27:13;;;;;;;4.03;2.60;;;;;;;;;;2612606;39;20730;-75
2023/08/03 02:32:43;;;;;;;4.63;2.00;;;;;;;;;;2610690;54;20391;-77
2023/08/03 02:38:13;;;;;;;4.03;1.37;;;;;;;;;;2610505;54;20477;-76
2023/08/03 02:43:43;;;;;;;6.77;2.93;;;;;;;;;;2611798;39;20735;-75
2023/08/03 02:49:12;;;;;;;3.93;2.47;;;;;;;;;;2611306;54;20391;-78
2023/08/03 02:54:42;;;;;;;3.90;1.80;;;;;;;;;;2611588;54;20371;-76
2023/08/03 02:57:28;;;;;;;7.23;3.90;;;;;;;;;;2610931;54;20442;-71
2023/08/03 02:59:54;;;;;;;5.80;2.30;;;;;;;;;;2610300;54;20439;-72
2023/08/03 03:05:24;;;;;;;7.77;1.90;;;;;;;;;;2610491;54;20362;-74
2023/08/03 03:10:53;;;;;;;3.10;1.73;;;;;;;;;;2613924;54;20355;-72
2023/08/03 03:16:25;;;;;;;3.83;2.40;;;;;;;;;;2610641;54;20423;-72
2023/08/03 03:21:54;;;;;;;8.13;2.57;;;;;;;;;;2610006;54;20376;-73
2023/08/03 03:27:24;;;;;;;3.50;2.30;;;;;;;;;;2612157;54;20378;-75
2023/08/03 03:32:54;;;;;;;8.47;2.10;;;;;;;;;;2610741;54;20461;-76
2023/08/03 03:42:04;;;;;;;6.87;2.57;;;;;;;;;;2610058;54;20374;-75
2023/08/03 03:47:33;;;;;;;6.57;1.80;;;;;;;;;;2609619;54;20383;-76
2023/08/03 03:53:03;;;;;;;2.83;1.80;;;;;;;;;;2610060;54;20985;-76
2023/08/03 03:58:33;;;;;;;2.03;1.30;;;;;;;;;;2609498;54;20419;-75
2023/08/03 04:04:02;;;;;;;2.73;1.77;;;;;;;;;;2613503;54;20419;-77
2023/08/03 04:09:32;;;;;;;3.53;2.10;;;;;;;;;;2614132;54;20921;-77
2023/08/03 04:15:02;;;;;;;6.70;1.77;;;;;;;;;;2613637;54;20391;-77
2023/08/03 04:20:32;;;;;;;4.97;2.17;;;;;;;;;;2610163;54;20936;-77
2023/08/03 04:26:01;;;;;;;2.83;1.37;;;;;;;;;;2610260;54;20406;-76
2023/08/03 04:31:31;;;;;;;3.60;1.30;;;;;;;;;;2610219;54;20367;-76
2023/08/03 04:37:00;;;;;;;5.20;1.90;;;;;;;;;;2610499;54;20362;-78
2023/08/03 04:42:30;;;;;;;2.50;1.37;;;;;;;;;;2611011;54;20567;-76
2023/08/03 04:48:00;;;;;;;2.50;1.60;;;;;;;;;;2610880;54;20362;-76
2023/08/03 04:53:29;;;;;;;4.47;1.63;;;;;;;;;;2610181;54;21283;-77
2023/08/03 04:58:59;;;;;;;2.00;1.60;;;;;;;;;;2610765;54;20414;-77
2023/08/03 05:04:29;;;;;;;2.40;1.63;;;;;;;;;;2610529;54;20407;-76
2023/08/03 05:09:58;;;;;;;3.57;1.33;;;;;;;;;;2610111;54;20358;-77
2023/08/03 05:15:28;;;;;;;4.43;1.17;;;;;;;;;;2611665;39;20737;-77
2023/08/03 05:20:58;;;;;;;3.30;1.80;;;;;;;;;;2612154;54;20378;-76
2023/08/03 05:26:27;;;;;;;4.30;1.80;;;;;;;;;;2610975;54;20387;-75
2023/08/03 05:31:57;;;;;;;4.10;1.47;;;;;;;;;;2609974;54;20435;-76
2023/08/03 05:37:26;;;;;;;2.50;1.30;;;;;;;;;;2610327;54;20422;-74
2023/08/03 05:42:56;;;;;;;2.00;1.33;;;;;;;;;;2609268;54;20487;-75
2023/08/03 05:48:26;;;;;;;2.37;1.50;;;;;;;;;;2609621;54;20398;-73
2023/08/03 05:53:56;;;;;;;6.60;1.50;;;;;;;;;;2608933;54;20367;-73
2023/08/03 05:59:26;;;;;;;3.00;1.70;;;;;;;;;;2609592;54;20399;-77
2023/08/03 06:04:55;;;;;;;3.10;1.23;;;;;;;;;;2611768;54;20399;-73
2023/08/03 06:10:26;;;;;;;2.13;1.00;;;;;;;;;;2614325;54;20344;-74
2023/08/03 06:15:56;;;;;;;2.07;1.13;;;;;;;;;;2611792;54;20386;-73
2023/08/03 06:21:26;;;;;;;2.53;1.20;;;;;;;;;;2613637;54;20359;-73
2023/08/03 06:26:58;;;;;;;2.13;1.20;;;;;;;;;;2613920;54;20375;-73
2023/08/03 06:32:30;;;;;;;5.30;1.63;;;;;;;;;;2611987;54;20996;-73
2023/08/03 06:44:08;;;;;;;4.17;2.10;;;;;;;;;;2613464;54;21129;-73
2023/08/03 06:49:37;;;;;;;5.07;1.90;;;;;;;;;;2614741;54;20387;-75
2023/08/03 06:55:07;;;;;;;2.50;1.57;;;;;;;;;;2614082;54;20543;-74
2023/08/03 07:00:40;;;;;;;4.90;2.20;;;;;;;;;;2612030;54;20413;-71
2023/08/03 07:06:10;;;;;;;4.00;1.90;;;;;;;;;;2613948;54;20371;-71
2023/08/03 07:11:40;;;;;;;3.03;1.77;;;;;;;;;;2614480;39;20858;-71
2023/08/03 07:17:09;;;;;;;3.83;1.70;;;;;;;;;;2614316;54;20354;-71
2023/08/03 07:22:39;;;;;;;2.30;1.63;;;;;;;;;;2614248;39;20497;-71
2023/08/03 07:28:08;;;;;;;1.50;0.93;;;;;;;;;;2614551;54;20367;-72
2023/08/03 07:33:38;;;;;;;2.63;1.80;;;;;;;;;;2614160;54;20374;-71
2023/08/03 07:42:49;;;;;;;2.70;1.70;;;;;;;;;;2614312;54;20506;-70
2023/08/03 07:48:18;;;;;;;1.70;1.00;;;;;;;;;;2614071;54;20377;-71
2023/08/03 07:53:48;;;;;;;2.83;1.30;;;;;;;;;;2614200;39;20727;-71
2023/08/03 07:59:17;;;;;;;7.83;2.40;;;;;;;;;;2614175;54;20435;-72
2023/08/03 08:04:50;;;;;;;2.93;1.83;;;;;;;;;;2614459;39;20764;-71
2023/08/03 08:10:20;;;;;;;3.57;3.10;;;;;;;;;;2613560;54;20928;-72
2023/08/03 08:15:50;;;;;;;2.63;2.10;;;;;;;;;;2614361;54;20382;-71
2023/08/03 08:21:20;;;;;;;2.87;1.93;;;;;;;;;;2613852;54;20516;-71
2023/08/03 08:26:50;;;;;;;2.70;1.80;;;;;;;;;;2614148;54;20374;-71
2023/08/03 08:32:19;;;;;;;3.23;2.57;;;;;;;;;;2613955;54;20454;-72
2023/08/03 08:37:49;;;;;;;5.63;1.80;;;;;;;;;;2613861;54;20378;-72
2023/08/03 08:43:20;;;;;;;3.37;1.47;;;;;;;;;;2615041;31;20832;-72
2023/08/03 08:48:49;;;;;;;3.00;1.70;;;;;;;;;;2614575;54;20440;-72
2023/08/03 08:54:19;;;;;;;1.93;1.70;;;;;;;;;;2613845;39;20470;-71
2023/08/03 09:00:05;;;;;;;2.20;1.50;;;;;;;;;;2613980;54;20363;-72
2023/08/03 09:05:36;;;;;;;2.47;1.73;;;;;;;;;;2613799;54;20407;-71
2023/08/03 09:11:06;;;;;;;2.87;1.53;;;;;;;;;;2613507;54;20408;-71
2023/08/03 09:16:37;;;;;;;2.60;2.10;;;;;;;;;;2613976;54;20438;-75
2023/08/03 09:22:07;;;;;;;4.10;2.47;;;;;;;;;;2614221;54;20990;-73
2023/08/03 09:27:37;;;;;;;2.90;2.00;;;;;;;;;;2613226;54;20997;-74
2023/08/03 09:33:14;;;;;;;3.17;1.70;;;;;;;;;;2611934;54;20387;-76
2023/08/03 09:35:58;;;;;;;4.03;1.53;;;;;;;;;;2608856;47;21025;-74
2023/08/03 09:44:36;;;;;;;5.13;2.13;;;;;;;;;;2612821;54;20387;-74
2023/08/03 09:50:06;;;;;;;1.77;1.67;;;;;;;;;;2614945;54;20802;-73
2023/08/03 09:55:40;;;;;;;2.30;2.10;;;;;;;;;;2614430;54;20395;-73
2023/08/03 10:01:11;;;;;;;2.10;1.60;;;;;;;;;;2614766;54;20342;-74
2023/08/03 10:06:42;;;;;;;8.40;2.63;;;;;;;;;;2615134;39;20797;-74
2023/08/03 10:12:18;;;;;;;4.50;1.93;;;;;;;;;;2614793;54;20402;-73
2023/08/03 10:17:48;;;;;;;3.50;2.37;;;;;;;;;;2614716;54;20395;-74
2023/08/03 10:23:19;;;;;;;4.03;2.20;;;;;;;;;;2614492;54;20416;-74
2023/08/03 10:28:50;;;;;;;4.33;2.17;;;;;;;;;;2614334;54;20358;-71
2023/08/03 10:34:26;;;;;;;7.13;2.53;;;;;;;;;;2614900;54;20363;-71
2023/08/03 10:43:33;;;;;;;3.23;2.47;;;;;;;;;;2612228;54;20382;-72
2023/08/03 10:49:22;;;;;;;4.40;2.43;;;;;;;;;;2610976;54;20363;-72
2023/08/03 10:54:52;;;;;;;3.23;2.40;;;;;;;;;;2610450;54;20499;-74
2023/08/03 11:00:22;;;;;;;2.60;2.33;;;;;;;;;;2610369;54;20391;-72
2023/08/03 11:05:55;;;;;;;3.10;2.80;;;;;;;;;;2611133;54;20419;-72
2023/08/03 11:11:32;;;;;;;2.60;2.40;;;;;;;;;;2610148;54;20366;-71
2023/08/03 11:17:02;;;;;;;3.83;2.90;;;;;;;;;;2610607;54;20366;-71
2023/08/03 11:22:32;;;;;;;4.67;3.33;;;;;;;;;;2610748;54;20393;-70
2023/08/03 11:28:01;;;;;;;4.07;3.60;;;;;;;;;;2613603;54;20386;-71
2023/08/03 11:33:36;;;;;;;4.73;3.43;;;;;;;;;;2611042;54;20542;-71
2023/08/03 11:39:05;;;;;;;3.83;3.27;;;;;;;;;;2610010;54;20812;-71
2023/08/03 11:44:41;;;;;;;6.33;4.10;;;;;;;;;;2610506;54;20402;-71
2023/08/03 11:47:20;;;;;;;5.87;4.00;;;;;;;;;;2611692;54;20387;-77
2023/08/03 11:49:49;;;;;;;9.00;3.37;;;;;;;;;;2614361;54;20412;-75
2023/08/03 11:55:30;;;;;;;6.17;4.20;;;;;;;;;;2613641;54;20371;-76
2023/08/03 12:01:01;;;;;;;3.87;3.30;;;;;;;;;;2612838;54;20363;-75
2023/08/03 12:06:48;;;;;;;6.30;3.90;;;;;;;;;;2610355;54;20420;-70
2023/08/03 12:12:24;;;;;;;4.40;3.20;;;;;;;;;;2612680;54;20475;-72
2023/08/03 12:17:54;;;;;;;4.47;3.63;;;;;;;;;;2614265;54;20378;-71
2023/08/03 12:23:23;;;;;;;4.20;3.03;;;;;;;;;;2613978;54;20394;-71
2023/08/03 12:28:53;;;;;;;3.63;3.33;;;;;;;;;;2614436;54;20914;-72
2023/08/03 12:34:23;;;;;;;3.10;2.87;;;;;;;;;;2613098;54;20359;-72
2023/08/03 12:43:37;;;;;;;4.20;3.70;;;;;;;;;;2614314;39;20735;-72
2023/08/03 12:49:06;;;;;;;2.67;2.47;;;;;;;;;;2614359;54;20394;-72
2023/08/03 12:54:35;;;;;;;3.63;2.57;;;;;;;;;;2613911;54;21129;-71
2023/08/03 13:00:06;;;;;;;3.90;2.60;;;;;;;;;;2614202;54;20394;-72
2023/08/03 13:05:36;;;;;;;2.77;2.57;;;;;;;;;;2614375;54;20362;-70
2023/08/03 13:11:06;;;;;;;3.13;2.83;;;;;;;;;;2614515;54;20383;-75
2023/08/03 13:16:36;;;;;;;3.23;2.43;;;;;;;;;;2614101;54;20383;-74
2023/08/03 13:22:06;;;;;;;2.90;2.70;;;;;;;;;;2614469;54;20956;-75
2023/08/03 13:27:35;;;;;;;4.10;2.90;;;;;;;;;;2614818;54;20378;-75
2023/08/03 13:33:06;;;;;;;3.80;3.50;;;;;;;;;;2612066;39;20785;-74
2023/08/03 13:38:36;;;;;;;3.50;3.20;;;;;;;;;;2611806;54;20394;-73
2023/08/03 13:44:05;;;;;;;3.73;3.43;;;;;;;;;;2615483;39;20752;-74
2023/08/03 13:49:40;;;;;;;3.30;2.83;;;;;;;;;;2614954;54;20398;-74
2023/08/03 13:55:09;;;;;;;5.07;3.70;;;;;;;;;;2614716;54;20394;-74
2023/08/03 14:00:39;;;;;;;3.40;3.10;;;;;;;;;;2614722;54;20374;-74
2023/08/03 14:06:09;;;;;;;4.20;3.53;;;;;;;;;;2615196;54;20398;-74
2023/08/03 14:11:39;;;;;;;3.27;2.90;;;;;;;;;;2614591;54;20390;-72
2023/08/03 14:17:09;;;;;;;3.03;2.73;;;;;;;;;;2615075;39;20732;-71
2023/08/03 14:22:38;;;;;;;3.10;2.20;;;;;;;;;;2614797;54;20395;-73
2023/08/03 14:28:09;;;;;;;3.00;1.97;;;;;;;;;;2614829;39;20800;-74
2023/08/03 14:33:38;;;;;;;2.80;2.10;;;;;;;;;;2614523;54;20387;-75
2023/08/03 14:39:08;;;;;;;2.67;2.00;;;;;;;;;;2614889;54;20338;-73
2023/08/03 14:44:38;;;;;;;3.63;3.33;;;;;;;;;;2614628;54;20367;-73
2023/08/03 14:50:08;;;;;;;2.30;2.10;;;;;;;;;;2610937;54;20403;-73
2023/08/03 14:52:52;;;;;;;4.23;2.03;;;;;;;;;;2611182;54;20972;-74
2023/08/03 14:55:19;;;;;;;6.23;2.03;;;;;;;;;;2610930;54;20424;-73
2023/08/03 15:00:48;;;;;;;2.73;1.70;;;;;;;;;;2613951;54;20403;-74
2023/08/03 15:06:18;;;;;;;2.13;1.93;;;;;;;;;;2613913;54;20367;-74
2023/08/03 15:11:47;;;;;;;2.50;1.73;;;;;;;;;;2614104;54;20526;-73
2023/08/03 15:17:17;;;;;;;2.57;1.80;;;;;;;;;;2615249;54;20422;-71
2023/08/03 15:22:47;;;;;;;6.03;3.00;;;;;;;;;;2615070;39;20806;-72
2023/08/03 15:28:16;;;;;;;6.83;2.80;;;;;;;;;;2614519;54;20387;-71
2023/08/03 15:33:46;;;;;;;4.23;2.30;;;;;;;;;;2614443;54;20396;-71
2023/08/03 15:45:23;;;;;;;6.00;1.83;;;;;;;;;;2614047;54;20527;-70
2023/08/03 15:50:52;;;;;;;5.43;2.33;;;;;;;;;;2613915;54;20370;-70
2023/08/03 15:56:22;;;;;;;3.87;1.70;;;;;;;;;;2614409;54;20423;-71
2023/08/03 16:01:51;;;;;;;5.80;3.00;;;;;;;;;;2613736;54;20909;-70
2023/08/03 16:07:21;;;;;;;3.10;2.13;;;;;;;;;;2613059;39;20778;-70
2023/08/03 16:12:51;;;;;;;3.67;2.50;;;;;;;;;;2613654;54;20354;-71
2023/08/03 16:18:20;;;;;;;10.83;2.07;;;;;;;;;;2614256;46;20804;-71
2023/08/03 16:23:50;;;;;;;6.30;2.60;;;;;;;;;;2614158;54;20355;-71
2023/08/03 16:29:20;;;;;;;8.20;3.33;;;;;;;;;;2614758;54;20391;-73
2023/08/03 16:34:49;;;;;;;7.17;3.43;;;;;;;;;;2613352;54;20387;-74
2023/08/03 16:43:51;;;;;;;7.10;4.57;;;;;;;;;;2614128;54;20414;-73
2023/08/03 16:49:22;;;;;;;7.13;5.10;;;;;;;;;;2614502;54;20487;-73
2023/08/03 16:54:52;;;;;;;10.50;5.00;;;;;;;;;;2614008;54;20442;-74
2023/08/03 17:00:21;;;;;;;9.93;4.97;;;;;;;;;;2614401;54;20358;-74
2023/08/03 17:05:52;;;;;;;6.60;4.90;;;;;;;;;;2614333;54;20395;-74
2023/08/03 17:11:21;;;;;;;11.30;5.13;;;;;;;;;;2614113;54;20523;-74
2023/08/03 17:16:52;;;;;;;7.27;4.30;;;;;;;;;;2614246;39;20829;-74
2023/08/03 17:22:21;;;;;;;9.37;4.90;;;;;;;;;;2614351;39;21147;-75
2023/08/03 17:27:51;;;;;;;11.23;6.23;;;;;;;;;;2613924;54;20383;-76
2023/08/03 17:33:21;;;;;;;8.73;5.00;;;;;;;;;;2613990;54;20383;-76
2023/08/03 17:38:51;;;;;;;11.47;4.90;;;;;;;;;;2614321;54;20490;-74
2023/08/03 17:44:21;;;;;;;8.60;4.20;;;;;;;;;;2614125;54;20382;-75
2023/08/03 17:49:51;;;;;;;7.30;5.53;;;;;;;;;;2614004;54;21027;-76
2023/08/03 17:55:20;;;;;;;8.27;3.57;;;;;;;;;;2614220;54;20431;-76
2023/08/03 18:00:50;;;;;;;5.10;3.27;;;;;;;;;;2614816;39;20806;-74
2023/08/03 18:06:22;;;;;;;3.90;3.00;;;;;;;;;;2614605;54;20415;-75
2023/08/03 18:11:51;;;;;;;5.40;3.00;;;;;;;;;;2614608;54;20822;-75
2023/08/03 18:17:21;;;;;;;6.53;4.37;;;;;;;;;;2613494;54;20378;-75
2023/08/03 18:22:52;;;;;;;8.90;6.33;;;;;;;;;;2614926;54;20431;-75
2023/08/03 18:28:21;;;;;;;6.30;3.60;;;;;;;;;;2615363;54;20363;-76
2023/08/03 18:33:56;;;;;;;5.90;3.37;;;;;;;;;;2612247;54;20396;-75
2023/08/03 18:39:26;;;;;;;6.23;3.23;;;;;;;;;;2614400;54;20917;-76
2023/08/03 18:48:24;;;;;;;9.17;3.07;;;;;;;;;;2615299;54;20467;-73
2023/08/03 18:53:53;;;;;;;4.93;2.90;;;;;;;;;;2614749;54;20904;-72
2023/08/03 18:59:23;;;;;;;5.53;3.57;;;;;;;;;;2614715;54;20407;-73
2023/08/03 19:04:53;;;;;;;9.63;3.50;;;;;;;;;;2614760;54;20450;-73
2023/08/03 19:10:24;;;;;;;4.77;3.50;;;;;;;;;;2614888;54;20900;-75
2023/08/03 19:15:55;;;;;;;5.03;3.33;;;;;;;;;;2611042;39;20858;-75
2023/08/03 19:21:25;;;;;;;6.10;3.60;;;;;;;;;;2611351;54;20410;-76
2023/08/03 19:26:55;;;;;;;4.20;3.10;;;;;;;;;;2611274;54;20407;-76
2023/08/03 19:32:24;;;;;;;8.83;4.50;;;;;;;;;;2613082;54;20379;-76
2023/08/03 19:37:54;;;;;;;6.70;4.80;;;;;;;;;;2613636;54;20401;-76
2023/08/03 19:43:24;;;;;;;10.73;4.33;;;;;;;;;;2614267;54;20748;-76
2023/08/03 19:48:53;;;;;;;6.53;3.77;;;;;;;;;;2614789;39;20850;-78
2023/08/03 19:54:23;;;;;;;6.27;3.57;;;;;;;;;;2610038;39;21825;-79
2023/08/03 19:59:53;;;;;;;6.13;3.30;;;;;;;;;;2611376;54;20407;-76
2023/08/03 20:05:22;;;;;;;10.27;3.77;;;;;;;;;;2611132;54;20371;-77
2023/08/03 20:10:52;;;;;;;9.67;4.30;;;;;;;;;;2610862;54;20359;-77
2023/08/03 20:16:23;;;;;;;7.63;3.73;;;;;;;;;;2611400;39;20746;-76
2023/08/03 20:21:52;;;;;;;9.57;5.17;;;;;;;;;;2612368;54;20449;-77
2023/08/03 20:27:22;;;;;;;8.60;4.27;;;;;;;;;;2609133;54;20415;-75
2023/08/03 20:32:52;;;;;;;7.83;4.70;;;;;;;;;;2610797;46;20382;-75
2023/08/03 20:38:22;;;;;;;9.70;4.10;;;;;;;;;;2610516;54;20415;-75
2023/08/03 20:43:52;;;;;;;8.73;4.87;;;;;;;;;;2612359;54;20379;-76
2023/08/03 20:52:44;;;;;;;14.13;4.50;;;;;;;;;;2611941;54;20386;-75
2023/08/03 20:55:10;;;;;;;9.43;3.90;;;;;;;;;;2610175;47;20539;-73
2023/08/03 21:00:40;;;;;;;9.47;4.67;;;;;;;;;;2612874;54;20386;-72
2023/08/03 21:06:09;;;;;;;8.67;4.53;;;;;;;;;;2606464;54;20379;-72
2023/08/03 21:11:39;;;;;;;8.93;3.80;;;;;;;;;;2608706;54;20362;-74
2023/08/03 21:17:08;;;;;;;10.83;4.20;;;;;;;;;;2606065;47;20670;-74
2023/08/03 21:22:38;;;;;;;10.00;4.37;;;;;;;;;;2606171;54;20399;-73
2023/08/03 21:28:08;;;;;;;5.63;3.67;;;;;;;;;;2610537;54;21075;-72
2023/08/03 21:33:38;;;;;;;9.53;4.30;;;;;;;;;;2610649;54;20391;-72
2023/08/03 21:39:08;;;;;;;7.87;3.70;;;;;;;;;;2607132;54;21033;-72
2023/08/03 21:44:40;;;;;;;10.03;4.77;;;;;;;;;;2606998;54;20347;-71
2023/08/03 21:53:42;;;;;;;9.00;4.37;;;;;;;;;;2608464;54;20417;-78
2023/08/03 21:59:11;;;;;;;12.23;4.47;;;;;;;;;;2606853;54;20367;-76
2023/08/03 22:04:41;;;;;;;8.07;3.30;;;;;;;;;;2609057;54;20498;-73
2023/08/03 22:10:12;;;;;;;14.70;5.40;;;;;;;;;;2611207;54;21785;-77
2023/08/03 22:15:42;;;;;;;6.90;4.57;;;;;;;;;;2610629;54;20406;-78
2023/08/03 22:21:13;;;;;;;7.20;4.67;;;;;;;;;;2613339;54;20359;-78
2023/08/03 22:26:42;;;;;;;6.97;3.70;;;;;;;;;;2612564;54;20363;-76
2023/08/03 22:32:12;;;;;;;7.40;4.63;;;;;;;;;;2611575;54;20354;-78
2023/08/03 22:37:42;;;;;;;9.30;3.97;;;;;;;;;;2612530;54;20355;-78
2023/08/03 22:43:12;;;;;;;16.70;4.27;;;;;;;;;;2611810;54;20387;-76
2023/08/03 22:48:42;;;;;;;5.50;3.93;;;;;;;;;;2612227;54;20390;-78
2023/08/03 22:54:11;;;;;;;11.27;4.40;;;;;;;;;;2611757;54;20390;-77
2023/08/03 22:59:41;;;;;;;6.93;3.27;;;;;;;;;;2612238;54;20359;-71
2023/08/03 23:05:10;;;;;;;8.03;3.80;;;;;;;;;;2612789;54;20390;-72
2023/08/03 23:10:40;;;;;;;10.53;4.00;;;;;;;;;;2613939;54;20351;-77
2023/08/03 23:16:16;;;;;;;8.20;3.80;;;;;;;;;;2614692;54;20359;-77
2023/08/03 23:21:45;;;;;;;11.37;4.23;;;;;;;;;;2613541;39;20994;-76
2023/08/03 23:27:15;;;;;;;5.73;3.90;;;;;;;;;;2614291;54;20363;-76
2023/08/03 23:32:45;;;;;;;13.50;5.53;;;;;;;;;;2613752;54;20471;-76
2023/08/03 23:38:14;;;;;;;10.40;5.43;;;;;;;;;;2613164;39;20957;-76
2023/08/03 23:43:44;;;;;;;15.40;5.57;;;;;;;;;;2612810;54;20426;-76
2023/08/03 23:49:13;;;;;;;9.70;6.13;;;;;;;;;;2612605;54;20398;-76
2023/08/03 23:54:43;;;;;;;11.07;6.20;;;;;;;;;;2613009;54;20406;-75
